createdAt,value
2023-06-04T00:02:17.453Z,7.68
2023-06-04T00:04:44.428Z,3.53
2023-06-04T00:07:11.332Z,5.05
2023-06-04T00:09:38.187Z,4.75
2023-06-04T00:12:05.420Z,6.53
2023-06-04T00:14:32.306Z,3.80
2023-06-04T00:16:59.074Z,5.35
2023-06-04T00:19:26.041Z,3.90
2023-06-04T00:21:52.820Z,3.90
2023-06-04T00:24:19.601Z,3.78
2023-06-04T00:26:46.509Z,4.32
2023-06-04T00:29:13.299Z,3.15
2023-06-04T00:31:40.246Z,4.57
2023-06-04T00:34:07.179Z,4.13
2023-06-04T00:36:33.980Z,2.78
2023-06-04T00:39:00.879Z,3.92
2023-06-04T00:41:27.881Z,3.35
2023-06-04T00:43:57.588Z,4.50
2023-06-04T00:46:26.501Z,3.85
2023-06-04T00:48:54.310Z,3.40
2023-06-04T00:51:22.291Z,4.32
2023-06-04T00:53:52.765Z,5.22
2023-06-04T00:56:20.049Z,3.35
2023-06-04T00:58:47.806Z,4.25
2023-06-04T01:01:52.801Z,4.60
2023-06-04T01:04:30.326Z,5.50
2023-06-04T01:07:01.188Z,4.28
2023-06-04T01:09:29.111Z,4.47
2023-06-04T01:11:59.320Z,5.53
2023-06-04T01:14:27.037Z,4.30
2023-06-04T01:17:24.967Z,3.30
2023-06-04T01:20:05.379Z,5.78
2023-06-04T01:22:41.357Z,4.82
2023-06-04T01:25:27.472Z,2.53
2023-06-04T01:27:58.117Z,4.32
2023-06-04T01:30:33.697Z,3.07
2023-06-04T01:33:01.549Z,5.28
2023-06-04T01:35:29.785Z,6.28
2023-06-04T01:37:56.902Z,4.03
2023-06-04T01:40:25.010Z,4.55
2023-06-04T01:42:51.952Z,4.97
2023-06-04T01:45:19.004Z,4.47
2023-06-04T01:47:45.826Z,5.10
2023-06-04T01:50:13.004Z,3.95
2023-06-04T01:52:41.306Z,6.53
2023-06-04T01:55:10.227Z,6.18
2023-06-04T01:57:37.659Z,5.07
2023-06-04T02:00:08.563Z,3.30
2023-06-04T02:02:36.899Z,3.80
2023-06-04T02:05:08.666Z,5.70
2023-06-04T02:10:03.734Z,5.15
2023-06-04T02:12:30.491Z,2.25
2023-06-04T02:14:57.212Z,3.72
2023-06-04T02:17:23.975Z,6.28
2023-06-04T02:19:51.154Z,4.00
2023-06-04T02:22:18.887Z,4.70
2023-06-04T02:24:45.917Z,3.13
2023-06-04T02:27:13.554Z,3.92
2023-06-04T02:29:41.400Z,4.93
2023-06-04T02:32:08.995Z,3.72
2023-06-04T02:34:36.038Z,3.45
2023-06-04T02:37:04.136Z,6.65
2023-06-04T02:39:30.917Z,3.50
2023-06-04T02:41:57.709Z,7.10
2023-06-04T02:44:26.302Z,3.33
2023-06-04T02:46:54.633Z,4.30
2023-06-04T02:49:21.379Z,3.85
2023-06-04T02:51:48.138Z,4.53
2023-06-04T02:54:14.995Z,3.97
2023-06-04T02:56:41.747Z,3.50
2023-06-04T02:59:11.544Z,2.90
2023-06-04T03:01:40.744Z,3.38
2023-06-04T03:04:10.956Z,6.63
2023-06-04T03:06:41.771Z,3.45
2023-06-04T03:09:08.622Z,3.83
2023-06-04T03:11:35.464Z,2.97
2023-06-04T03:14:02.270Z,2.95
2023-06-04T03:16:29.312Z,5.30
2023-06-04T03:18:57.410Z,3.22
2023-06-04T03:21:26.183Z,3.88
2023-06-04T03:23:53.039Z,2.47
2023-06-04T03:26:19.902Z,3.20
2023-06-04T03:28:46.658Z,5.78
2023-06-04T03:31:13.707Z,2.90
2023-06-04T03:33:40.673Z,3.15
2023-06-04T03:36:07.483Z,2.58
2023-06-04T03:38:34.262Z,3.65
2023-06-04T03:41:01.033Z,3.47
2023-06-04T03:43:27.764Z,2.92
2023-06-04T03:45:54.528Z,2.65
2023-06-04T03:48:21.416Z,2.75
2023-06-04T03:50:48.532Z,4.10
2023-06-04T03:53:15.387Z,4.53
2023-06-04T03:55:42.262Z,2.83
2023-06-04T03:58:10.663Z,1.83
2023-06-04T04:00:37.478Z,4.00
2023-06-04T04:03:04.403Z,4.72
2023-06-04T04:05:32.148Z,5.30
2023-06-04T04:07:59.000Z,2.50
2023-06-04T04:10:25.750Z,3.08
2023-06-04T04:12:55.986Z,3.35
2023-06-04T04:15:22.953Z,2.85
2023-06-04T04:17:49.868Z,3.45
2023-06-04T04:20:17.346Z,2.97
2023-06-04T04:22:44.143Z,5.72
2023-06-04T04:25:11.043Z,2.92
2023-06-04T04:27:41.560Z,3.40
2023-06-04T04:30:09.086Z,5.30
2023-06-04T04:32:39.641Z,2.38
2023-06-04T04:35:08.900Z,4.53
2023-06-04T04:37:39.652Z,2.58
2023-06-04T04:40:10.593Z,2.20
2023-06-04T04:42:37.796Z,3.10
2023-06-04T04:45:05.427Z,4.80
2023-06-04T04:47:32.258Z,2.80
2023-06-04T04:49:59.122Z,3.53
2023-06-04T04:52:26.042Z,3.40
2023-06-04T04:54:56.854Z,3.95
2023-06-04T04:57:23.836Z,3.10
2023-06-04T04:59:50.797Z,3.63
2023-06-04T05:02:17.657Z,4.18
2023-06-04T05:04:44.526Z,3.45
2023-06-04T05:07:11.388Z,4.20
2023-06-04T05:09:38.415Z,2.55
2023-06-04T05:12:05.381Z,2.78
2023-06-04T05:14:32.724Z,3.42
2023-06-04T05:16:59.564Z,2.65
2023-06-04T05:19:26.370Z,2.85
2023-06-04T05:21:53.144Z,2.33
2023-06-04T05:24:19.974Z,2.42
2023-06-04T05:26:49.412Z,5.78
2023-06-04T05:29:16.456Z,4.97
2023-06-04T05:31:43.465Z,2.72
2023-06-04T05:34:10.640Z,5.03
2023-06-04T05:36:37.517Z,3.45
2023-06-04T05:39:05.280Z,2.72
2023-06-04T05:41:32.091Z,4.85
2023-06-04T05:43:58.811Z,4.90
2023-06-04T05:46:25.779Z,5.93
2023-06-04T05:48:52.588Z,4.03
2023-06-04T05:51:19.440Z,3.05
2023-06-04T05:53:46.634Z,4.78
2023-06-04T05:56:13.818Z,2.30
2023-06-04T05:58:40.692Z,3.50
2023-06-04T06:01:07.844Z,4.30
2023-06-04T06:03:34.874Z,5.60
2023-06-04T06:06:02.278Z,2.90
2023-06-04T06:08:29.067Z,4.85
2023-06-04T06:10:56.801Z,2.22
2023-06-04T06:13:23.684Z,3.60
2023-06-04T06:15:50.543Z,2.85
2023-06-04T06:18:17.475Z,4.00
2023-06-04T06:20:44.319Z,2.85
2023-06-04T06:23:11.172Z,2.97
2023-06-04T06:25:38.036Z,3.03
2023-06-04T06:28:04.815Z,5.32
2023-06-04T06:30:31.596Z,3.53
2023-06-04T06:32:58.575Z,1.55
2023-06-04T06:35:25.317Z,3.72
2023-06-04T06:37:52.109Z,3.58
2023-06-04T06:40:18.865Z,5.35
2023-06-04T06:42:52.470Z,2.92
2023-06-04T06:45:20.359Z,3.60
2023-06-04T06:47:47.145Z,3.63
2023-06-04T06:50:14.088Z,5.43
2023-06-04T06:52:41.055Z,2.63
2023-06-04T06:55:08.161Z,2.67
2023-06-04T06:57:35.042Z,3.05
2023-06-04T07:00:01.870Z,4.35
2023-06-04T07:02:30.074Z,4.45
2023-06-04T07:04:57.135Z,4.32
2023-06-04T07:07:24.257Z,3.20
2023-06-04T07:09:51.280Z,2.47
2023-06-04T07:12:18.056Z,2.83
2023-06-04T07:14:44.841Z,3.53
2023-06-04T07:17:11.797Z,3.30
2023-06-04T07:19:38.515Z,2.42
2023-06-04T07:22:05.485Z,2.13
2023-06-04T07:24:32.288Z,6.50
2023-06-04T07:26:59.154Z,2.35
2023-06-04T07:29:25.943Z,3.53
2023-06-04T07:31:52.903Z,4.53
2023-06-04T07:34:19.833Z,3.67
2023-06-04T07:36:46.720Z,4.10
2023-06-04T07:39:13.933Z,4.50
2023-06-04T07:41:40.717Z,3.13
2023-06-04T07:44:07.492Z,3.80
2023-06-04T07:46:34.485Z,4.85
2023-06-04T07:49:01.290Z,4.05
2023-06-04T07:51:28.131Z,4.25
2023-06-04T07:53:54.912Z,5.57
2023-06-04T07:56:21.960Z,3.75
2023-06-04T07:58:49.009Z,4.15
2023-06-04T08:01:16.623Z,3.88
2023-06-04T08:03:43.647Z,3.80
2023-06-04T08:06:11.857Z,6.20
2023-06-04T08:08:38.617Z,5.53
2023-06-04T08:11:05.739Z,4.28
2023-06-04T08:13:32.700Z,3.67
2023-06-04T08:15:59.507Z,4.97
2023-06-04T08:18:26.387Z,6.55
2023-06-04T08:20:53.149Z,8.75
2023-06-04T08:23:20.082Z,4.60
2023-06-04T08:25:46.989Z,5.40
2023-06-04T08:28:16.928Z,5.32
2023-06-04T08:30:44.021Z,4.75
2023-06-04T08:33:12.620Z,6.18
2023-06-04T08:35:39.477Z,5.72
2023-06-04T08:38:06.461Z,8.07
2023-06-04T08:40:33.412Z,4.90
2023-06-04T08:43:01.766Z,3.80
2023-06-04T08:45:28.992Z,3.67
2023-06-04T08:47:56.122Z,4.93
2023-06-04T08:50:26.403Z,6.93
2023-06-04T08:52:56.762Z,3.15
2023-06-04T08:55:24.306Z,4.95
2023-06-04T08:57:54.406Z,4.60
2023-06-04T09:00:21.625Z,8.38
2023-06-04T09:02:49.215Z,6.80
2023-06-04T09:05:23.684Z,3.80
2023-06-04T09:07:55.272Z,3.78
2023-06-04T09:10:25.976Z,2.42
2023-06-04T09:12:53.738Z,5.07
2023-06-04T09:15:20.587Z,5.53
2023-06-04T09:17:47.392Z,5.53
2023-06-04T09:20:24.145Z,2.45
2023-06-04T09:22:51.278Z,5.20
2023-06-04T09:25:23.278Z,5.13
2023-06-04T09:27:50.610Z,4.63
2023-06-04T09:30:17.658Z,6.07
2023-06-04T09:32:44.598Z,4.65
2023-06-04T09:35:11.645Z,5.05
2023-06-04T09:37:39.070Z,5.03
2023-06-04T09:40:07.292Z,3.03
2023-06-04T09:42:50.139Z,3.35
2023-06-04T09:45:32.230Z,5.28
2023-06-04T09:48:00.243Z,6.32
2023-06-04T09:50:43.058Z,6.55
2023-06-04T09:53:16.877Z,7.38
2023-06-04T09:55:44.477Z,4.60
2023-06-04T09:58:13.590Z,3.35
2023-06-04T10:00:42.472Z,6.32
2023-06-04T10:03:16.401Z,4.45
2023-06-04T10:05:43.913Z,5.90
2023-06-04T10:08:13.591Z,4.78
2023-06-04T10:10:40.767Z,7.20
2023-06-04T10:13:13.665Z,3.40
2023-06-04T10:15:40.873Z,3.72
2023-06-04T10:18:07.987Z,4.38
2023-06-04T10:20:35.522Z,3.83
2023-06-04T10:23:03.212Z,5.28
2023-06-04T10:25:30.157Z,4.28
2023-06-04T10:27:57.617Z,5.22
2023-06-04T10:30:24.486Z,6.57
2023-06-04T10:32:51.900Z,5.43
2023-06-04T10:35:18.873Z,3.03
2023-06-04T10:37:46.349Z,5.50
2023-06-04T10:40:13.355Z,5.00
2023-06-04T10:42:43.957Z,2.95
2023-06-04T10:45:13.146Z,5.97
2023-06-04T10:47:42.434Z,3.13
2023-06-04T10:50:12.086Z,4.47
2023-06-04T10:52:56.458Z,4.03
2023-06-04T10:55:23.303Z,3.10
2023-06-04T10:57:58.060Z,5.30
2023-06-04T11:00:39.150Z,4.78
2023-06-04T11:03:12.206Z,4.22
2023-06-04T11:05:43.527Z,3.58
2023-06-04T11:08:12.435Z,3.50
2023-06-04T11:10:45.350Z,3.75
2023-06-04T11:13:12.779Z,5.50
2023-06-04T11:15:42.268Z,6.28
2023-06-04T11:18:14.384Z,5.03
2023-06-04T11:20:41.261Z,3.17
2023-06-04T11:23:08.072Z,6.35
2023-06-04T11:25:35.469Z,6.20
2023-06-04T11:28:05.071Z,8.07
2023-06-04T11:30:31.952Z,3.85
2023-06-04T11:33:03.982Z,4.20
2023-06-04T11:35:31.572Z,5.32
2023-06-04T11:38:00.428Z,3.42
2023-06-04T11:40:28.204Z,3.72
2023-06-04T11:42:56.147Z,4.95
2023-06-04T11:45:23.703Z,4.47
2023-06-04T11:47:54.218Z,5.43
2023-06-04T11:50:22.229Z,5.80
2023-06-04T11:52:49.846Z,5.65
2023-06-04T11:55:23.493Z,5.10
2023-06-04T11:57:51.670Z,4.57
2023-06-04T12:00:20.198Z,2.67
2023-06-04T12:02:57.633Z,3.08
2023-06-04T12:05:30.880Z,3.30
2023-06-04T12:08:07.939Z,5.38
2023-06-04T12:10:42.953Z,4.50
2023-06-04T12:13:10.756Z,3.85
2023-06-04T12:15:38.115Z,6.68
2023-06-04T12:18:07.769Z,6.80
2023-06-04T12:20:39.762Z,5.07
2023-06-04T12:23:07.466Z,3.67
2023-06-04T12:25:35.478Z,5.07
2023-06-04T12:28:04.094Z,3.42
2023-06-04T12:30:41.208Z,5.85
2023-06-04T12:33:09.149Z,3.10
2023-06-04T12:35:36.443Z,5.22
2023-06-04T12:38:05.614Z,3.53
2023-06-04T12:40:32.598Z,2.30
2023-06-04T12:42:59.371Z,4.40
2023-06-04T12:45:26.255Z,3.97
2023-06-04T12:47:53.078Z,5.00
2023-06-04T12:50:22.382Z,4.60
2023-06-04T12:52:49.788Z,4.57
2023-06-04T12:55:16.787Z,4.85
2023-06-04T12:57:45.631Z,3.60
2023-06-04T13:00:12.921Z,1.80
2023-06-04T13:02:39.914Z,5.13
2023-06-04T13:05:07.063Z,3.55
2023-06-04T13:07:33.984Z,3.10
2023-06-04T13:10:01.644Z,2.95
2023-06-04T13:12:28.415Z,3.88
2023-06-04T13:14:56.205Z,3.03
2023-06-04T13:17:23.520Z,3.55
2023-06-04T13:19:51.127Z,4.32
2023-06-04T13:22:18.073Z,4.75
2023-06-04T13:24:44.911Z,3.88
2023-06-04T13:27:11.817Z,7.22
2023-06-04T13:29:38.614Z,7.07
2023-06-04T13:32:05.930Z,5.60
2023-06-04T13:34:33.246Z,5.70
2023-06-04T13:37:00.196Z,7.22
2023-06-04T13:39:27.067Z,8.55
2023-06-04T13:41:53.925Z,6.82
2023-06-04T13:44:27.256Z,7.22
2023-06-04T13:46:54.732Z,6.63
2023-06-04T13:49:21.950Z,4.47
2023-06-04T13:51:48.778Z,8.52
2023-06-04T13:54:15.608Z,7.53
2023-06-04T13:56:42.427Z,5.68
2023-06-04T13:59:09.207Z,5.95
2023-06-04T14:01:36.334Z,9.00
2023-06-04T14:04:07.352Z,8.80
2023-06-04T14:09:03.350Z,9.23
2023-06-04T14:11:30.110Z,8.18
2023-06-04T14:13:57.234Z,9.55
2023-06-04T14:16:24.029Z,7.90
2023-06-04T14:18:50.984Z,9.18
2023-06-04T14:21:17.766Z,7.95
2023-06-04T14:23:44.568Z,9.60
2023-06-04T14:26:11.841Z,9.25
2023-06-04T14:28:38.644Z,8.73
2023-06-04T14:31:06.010Z,7.63
2023-06-04T14:33:32.935Z,8.15
2023-06-04T14:35:59.741Z,6.78
2023-06-04T14:38:26.527Z,8.30
2023-06-04T14:40:53.559Z,10.18
2023-06-04T14:43:20.591Z,11.57
2023-06-04T14:45:49.989Z,10.57
2023-06-04T14:48:17.062Z,9.73
2023-06-04T14:50:44.644Z,6.97
2023-06-04T14:53:12.588Z,6.80
2023-06-04T14:55:40.708Z,6.15
2023-06-04T14:58:07.712Z,6.53
2023-06-04T15:00:34.569Z,9.55
2023-06-04T15:03:03.322Z,7.68
2023-06-04T15:05:30.901Z,9.18
2023-06-04T15:07:57.771Z,11.38
2023-06-04T15:10:26.532Z,8.90
2023-06-04T15:12:54.342Z,9.57
2023-06-04T15:15:21.594Z,8.20
2023-06-04T15:17:49.458Z,11.25
2023-06-04T15:20:17.007Z,10.52
2023-06-04T15:22:43.941Z,11.65
2023-06-04T15:25:10.939Z,15.10
2023-06-04T15:27:39.799Z,9.05
2023-06-04T15:30:07.648Z,7.72
2023-06-04T15:32:35.349Z,7.47
2023-06-04T15:35:03.213Z,9.45
2023-06-04T15:37:30.009Z,12.13
2023-06-04T15:39:58.787Z,9.38
2023-06-04T15:42:25.755Z,9.23
2023-06-04T15:44:52.648Z,7.13
2023-06-04T15:47:19.443Z,9.18
2023-06-04T15:49:46.355Z,11.82
2023-06-04T15:52:13.130Z,8.52
2023-06-04T15:54:46.507Z,6.93
2023-06-04T15:57:14.730Z,11.10
2023-06-04T15:59:42.591Z,9.43
2023-06-04T16:02:09.591Z,8.82
2023-06-04T16:04:36.959Z,7.57
2023-06-04T16:07:06.127Z,12.20
2023-06-04T16:09:33.112Z,8.55
2023-06-04T16:12:00.219Z,11.32
2023-06-04T16:14:27.003Z,8.63
2023-06-04T16:16:54.012Z,8.50
2023-06-04T16:19:21.071Z,7.75
2023-06-04T16:21:47.875Z,12.77
2023-06-04T16:24:14.668Z,11.05
2023-06-04T16:26:41.494Z,13.63
2023-06-04T16:29:08.699Z,10.88
2023-06-04T16:31:35.546Z,8.13
2023-06-04T16:34:02.343Z,8.05
2023-06-04T16:36:29.187Z,9.65
2023-06-04T16:38:56.064Z,8.18
2023-06-04T16:41:22.947Z,10.02
2023-06-04T16:43:49.901Z,6.78
2023-06-04T16:46:16.751Z,7.28
2023-06-04T16:48:43.598Z,10.02
2023-06-04T16:51:10.705Z,11.63
2023-06-04T16:53:37.532Z,9.95
2023-06-04T16:56:04.340Z,9.80
2023-06-04T16:58:31.416Z,11.00
2023-06-04T17:00:58.245Z,12.43
2023-06-04T17:03:25.109Z,10.60
2023-06-04T17:05:51.929Z,12.48
2023-06-04T17:08:18.741Z,12.90
2023-06-04T17:10:45.724Z,11.05
2023-06-04T17:13:12.522Z,8.60
2023-06-04T17:15:39.430Z,13.85
2023-06-04T17:18:11.564Z,9.10
2023-06-04T17:20:39.086Z,11.52
2023-06-04T17:23:26.416Z,11.77
2023-06-04T17:25:53.896Z,11.50
2023-06-04T17:28:20.781Z,10.65
2023-06-04T17:30:47.778Z,10.98
2023-06-04T17:33:15.122Z,11.18
2023-06-04T17:35:42.006Z,11.95
2023-06-04T17:38:08.911Z,11.52
2023-06-04T17:40:35.751Z,12.05
2023-06-04T17:43:02.554Z,13.93
2023-06-04T17:45:29.404Z,13.15
2023-06-04T17:47:56.479Z,11.70
2023-06-04T17:50:23.375Z,10.63
2023-06-04T17:52:50.528Z,13.02
2023-06-04T17:55:17.660Z,11.25
2023-06-04T17:57:44.629Z,14.15
2023-06-04T18:00:12.046Z,10.10
2023-06-04T18:02:38.840Z,10.00
2023-06-04T18:05:06.221Z,11.75
2023-06-04T18:07:32.976Z,9.45
2023-06-04T18:09:59.785Z,16.00
2023-06-04T18:12:27.089Z,9.75
2023-06-04T18:14:53.821Z,13.65
2023-06-04T18:17:20.729Z,14.68
2023-06-04T18:19:47.534Z,11.93
2023-06-04T18:22:14.382Z,10.60
2023-06-04T18:24:41.209Z,10.85
2023-06-04T18:27:07.955Z,12.65
2023-06-04T18:29:34.807Z,11.73
2023-06-04T18:32:01.807Z,12.00
2023-06-04T18:34:29.857Z,11.93
2023-06-04T18:36:57.762Z,10.27
2023-06-04T18:39:26.459Z,12.85
2023-06-04T18:41:57.881Z,12.40
2023-06-04T18:46:51.856Z,11.70
2023-06-04T18:49:23.075Z,14.52
2023-06-04T18:51:53.842Z,12.63
2023-06-04T18:54:21.066Z,12.82
2023-06-04T18:56:47.979Z,9.15
2023-06-04T18:59:16.374Z,11.98
2023-06-04T19:01:44.276Z,10.75
2023-06-04T19:04:13.681Z,9.07
2023-06-04T19:06:41.739Z,16.10
2023-06-04T19:09:09.195Z,15.52
2023-06-04T19:11:37.279Z,11.40
2023-06-04T19:14:04.145Z,11.77
2023-06-04T19:16:31.046Z,12.95
2023-06-04T19:18:57.835Z,9.40
2023-06-04T19:21:24.672Z,12.80
2023-06-04T19:23:51.573Z,10.10
2023-06-04T19:26:18.675Z,11.57
2023-06-04T19:28:46.319Z,10.75
2023-06-04T19:31:13.168Z,8.35
2023-06-04T19:33:39.982Z,9.98
2023-06-04T19:36:07.051Z,10.15
2023-06-04T19:38:34.053Z,5.40
2023-06-04T19:41:03.026Z,7.50
2023-06-04T19:43:29.773Z,5.82
2023-06-04T19:46:00.748Z,7.35
2023-06-04T19:48:27.586Z,7.95
2023-06-04T19:50:54.383Z,8.88
2023-06-04T19:53:21.189Z,9.68
2023-06-04T19:55:48.041Z,6.45
2023-06-04T19:58:15.544Z,5.32
2023-06-04T20:00:42.592Z,5.00
2023-06-04T20:03:09.419Z,5.65
2023-06-04T20:05:36.249Z,4.53
2023-06-04T20:08:03.039Z,6.70
2023-06-04T20:10:29.788Z,4.72
2023-06-04T20:12:56.554Z,9.13
2023-06-04T20:15:23.322Z,6.68
2023-06-04T20:17:50.166Z,5.43
2023-06-04T20:20:17.005Z,5.63
2023-06-04T20:22:44.754Z,7.57
2023-06-04T20:25:11.834Z,6.72
2023-06-04T20:27:38.623Z,5.60
2023-06-04T20:30:06.268Z,6.88
2023-06-04T20:32:33.062Z,7.00
2023-06-04T20:34:59.891Z,6.22
2023-06-04T20:37:26.986Z,6.82
2023-06-04T20:39:53.826Z,5.55
2023-06-04T20:42:20.795Z,7.43
2023-06-04T20:44:47.588Z,5.60
2023-06-04T20:47:14.386Z,7.45
2023-06-04T20:49:41.249Z,6.32
2023-06-04T20:52:08.104Z,6.63
2023-06-04T20:54:35.059Z,7.22
2023-06-04T20:57:01.864Z,8.27
2023-06-04T20:59:28.642Z,6.47
2023-06-04T21:01:55.616Z,7.38
2023-06-04T21:04:22.433Z,5.15
2023-06-04T21:06:50.264Z,7.20
2023-06-04T21:09:17.054Z,7.15
2023-06-04T21:11:43.921Z,6.13
2023-06-04T21:14:11.064Z,4.78
2023-06-04T21:16:37.941Z,7.00
2023-06-04T21:19:04.759Z,7.18
2023-06-04T21:21:31.612Z,5.47
2023-06-04T21:23:58.554Z,5.82
2023-06-04T21:26:26.173Z,6.32
2023-06-04T21:28:52.967Z,6.75
2023-06-04T21:31:19.829Z,6.13
2023-06-04T21:33:46.677Z,9.75
2023-06-04T21:36:16.679Z,7.68
2023-06-04T21:38:43.862Z,9.15
2023-06-04T21:41:10.912Z,7.00
2023-06-04T21:43:37.933Z,9.25
2023-06-04T21:46:05.749Z,7.72
2023-06-04T21:48:32.645Z,8.32
2023-06-04T21:50:59.454Z,10.02
2023-06-04T21:53:26.255Z,8.35
2023-06-04T21:55:53.074Z,7.20
2023-06-04T21:58:21.635Z,8.15
2023-06-04T22:00:49.108Z,8.57
2023-06-04T22:03:16.176Z,9.50
2023-06-04T22:05:43.120Z,9.05
2023-06-04T22:08:10.084Z,10.07
2023-06-04T22:10:36.970Z,8.35
2023-06-04T22:13:03.768Z,10.75
2023-06-04T22:15:30.655Z,8.82
2023-06-04T22:18:00.458Z,10.15
2023-06-04T22:20:28.037Z,6.45
2023-06-04T22:22:54.890Z,6.75
2023-06-04T22:25:21.777Z,7.82
2023-06-04T22:27:48.764Z,10.23
2023-06-04T22:30:15.710Z,7.43
2023-06-04T22:32:42.507Z,11.18
2023-06-04T22:35:09.397Z,12.30
2023-06-04T22:37:36.449Z,8.00
2023-06-04T22:40:04.069Z,13.30
2023-06-04T22:42:30.919Z,9.90
2023-06-04T22:44:57.726Z,10.38
2023-06-04T22:47:24.791Z,11.10
2023-06-04T22:49:51.661Z,10.73
2023-06-04T22:52:20.972Z,9.80
2023-06-04T22:54:48.020Z,10.98
2023-06-04T22:57:14.819Z,10.70
2023-06-04T22:59:42.005Z,11.25
2023-06-04T23:02:09.038Z,11.05
2023-06-04T23:04:36.398Z,8.98
2023-06-04T23:07:03.620Z,10.30
2023-06-04T23:09:30.751Z,10.73
2023-06-04T23:11:57.585Z,11.38
2023-06-04T23:14:24.402Z,11.45
2023-06-04T23:16:51.246Z,9.15
2023-06-04T23:19:18.178Z,11.07
2023-06-04T23:21:45.021Z,11.75
2023-06-04T23:24:11.880Z,14.77
2023-06-04T23:26:38.704Z,9.05
2023-06-04T23:29:05.551Z,10.82
2023-06-04T23:31:32.456Z,9.95
2023-06-04T23:33:59.345Z,8.68
2023-06-04T23:36:26.232Z,12.00
2023-06-04T23:38:53.111Z,8.35
2023-06-04T23:41:19.902Z,11.80
2023-06-04T23:43:46.761Z,12.55
2023-06-04T23:46:13.696Z,10.85
2023-06-04T23:48:40.534Z,13.57
2023-06-04T23:51:07.683Z,12.45
2023-06-04T23:53:34.810Z,13.63
2023-06-04T23:56:02.320Z,11.00
2023-06-04T23:58:29.188Z,11.70
